createdAt,value
2019-02-25T00:04:34.148Z,7.60
2019-02-25T00:06:44.931Z,5.33
2019-02-25T00:08:55.763Z,5.37
2019-02-25T00:11:06.550Z,5.40
2019-02-25T00:13:17.457Z,5.23
2019-02-25T00:15:28.268Z,5.10
2019-02-25T00:18:00.842Z,5.77
2019-02-25T00:20:11.793Z,4.47
2019-02-25T00:22:22.581Z,7.47
2019-02-25T00:24:33.391Z,4.43
2019-02-25T00:26:44.247Z,7.17
2019-02-25T00:28:55.077Z,5.17
2019-02-25T00:31:05.994Z,5.57
2019-02-25T00:33:16.835Z,4.63
2019-02-25T00:35:27.653Z,5.73
2019-02-25T00:37:38.587Z,4.90
2019-02-25T00:39:49.448Z,3.47
2019-02-25T00:42:00.247Z,3.07
2019-02-25T00:44:11.049Z,3.27
2019-02-25T00:46:21.897Z,4.00
2019-02-25T00:48:32.662Z,3.57
2019-02-25T00:50:43.481Z,2.83
2019-02-25T00:52:54.296Z,2.40
2019-02-25T00:55:46.767Z,4.53
2019-02-25T00:57:57.571Z,2.47
2019-02-25T01:00:50.109Z,3.13
2019-02-25T01:03:00.951Z,3.43
2019-02-25T01:08:10.147Z,2.63
2019-02-25T01:10:20.952Z,3.30
2019-02-25T01:12:31.769Z,2.97
2019-02-25T01:14:42.563Z,3.70
2019-02-25T01:16:53.370Z,2.00
2019-02-25T01:19:04.161Z,3.73
2019-02-25T01:21:14.998Z,3.17
2019-02-25T01:23:25.798Z,2.80
2019-02-25T01:25:36.620Z,4.90
2019-02-25T01:27:47.446Z,4.00
2019-02-25T01:29:58.237Z,3.07
2019-02-25T01:32:09.172Z,3.30
2019-02-25T01:34:19.974Z,4.40
2019-02-25T01:36:30.863Z,3.00
2019-02-25T01:38:41.693Z,4.20
2019-02-25T01:40:52.475Z,3.87
2019-02-25T01:43:03.321Z,3.37
2019-02-25T01:45:55.764Z,2.80
2019-02-25T01:48:06.577Z,2.83
2019-02-25T01:50:17.381Z,3.03
2019-02-25T01:52:28.170Z,2.80
2019-02-25T01:54:38.979Z,2.30
2019-02-25T01:56:49.825Z,3.57
2019-02-25T01:59:00.698Z,3.60
2019-02-25T02:01:11.456Z,3.00
2019-02-25T02:03:22.297Z,3.23
2019-02-25T02:05:33.106Z,1.87
2019-02-25T02:07:43.953Z,2.20
2019-02-25T02:09:54.754Z,4.03
2019-02-25T02:12:05.543Z,2.90
2019-02-25T02:14:16.384Z,4.10
2019-02-25T02:16:27.191Z,2.67
2019-02-25T02:18:37.989Z,3.23
2019-02-25T02:20:48.797Z,2.03
2019-02-25T02:22:59.594Z,4.40
2019-02-25T02:25:52.088Z,3.77
2019-02-25T02:28:02.996Z,3.03
2019-02-25T02:30:55.465Z,2.63
2019-02-25T02:33:06.255Z,3.23
2019-02-25T02:35:17.068Z,2.87
2019-02-25T02:37:27.941Z,3.47
2019-02-25T02:39:38.759Z,3.47
2019-02-25T02:42:10.551Z,2.83
2019-02-25T02:44:21.354Z,3.60
2019-02-25T02:47:11.916Z,2.20
2019-02-25T02:49:22.728Z,3.43
2019-02-25T02:51:33.565Z,2.87
2019-02-25T02:53:44.354Z,2.23
2019-02-25T02:55:55.176Z,4.07
2019-02-25T02:58:05.962Z,3.00
2019-02-25T03:00:17.862Z,2.60
2019-02-25T03:02:28.684Z,4.77
2019-02-25T03:04:39.485Z,4.80
2019-02-25T03:06:50.362Z,3.30
2019-02-25T03:09:01.124Z,2.20
2019-02-25T03:11:12.008Z,2.30
2019-02-25T03:13:22.806Z,2.67
2019-02-25T03:15:33.631Z,2.73
2019-02-25T03:17:44.426Z,3.47
2019-02-25T03:19:55.215Z,4.07
2019-02-25T03:22:06.042Z,4.27
2019-02-25T03:24:16.838Z,3.10
2019-02-25T03:26:27.681Z,3.20
2019-02-25T03:28:38.584Z,2.40
2019-02-25T03:30:49.387Z,5.87
2019-02-25T03:33:00.219Z,3.10
2019-02-25T03:35:11.118Z,2.40
2019-02-25T03:37:21.932Z,4.67
2019-02-25T03:39:32.729Z,2.53
2019-02-25T03:41:43.532Z,3.70
2019-02-25T03:43:54.345Z,2.60
2019-02-25T03:46:05.245Z,3.33
2019-02-25T03:48:16.056Z,3.10
2019-02-25T03:50:26.858Z,4.93
2019-02-25T03:52:37.673Z,3.07
2019-02-25T03:54:49.539Z,3.13
2019-02-25T03:57:00.422Z,3.03
2019-02-25T03:59:11.245Z,3.63
2019-02-25T04:01:22.052Z,3.07
2019-02-25T04:03:32.853Z,4.33
2019-02-25T04:05:43.771Z,3.00
2019-02-25T04:07:54.700Z,3.10
2019-02-25T04:10:47.153Z,4.40
2019-02-25T04:12:57.999Z,3.30
2019-02-25T04:15:50.438Z,4.53
2019-02-25T04:18:01.251Z,3.23
2019-02-25T04:20:53.705Z,4.37
2019-02-25T04:23:04.525Z,3.37
2019-02-25T04:25:15.346Z,2.83
2019-02-25T04:27:26.142Z,3.93
2019-02-25T04:29:36.959Z,4.17
2019-02-25T04:31:47.752Z,2.87
2019-02-25T04:33:58.592Z,3.93
2019-02-25T04:36:09.394Z,4.67
2019-02-25T04:38:20.192Z,3.77
2019-02-25T04:40:31.000Z,6.03
2019-02-25T04:42:41.839Z,4.67
2019-02-25T04:44:52.655Z,4.13
2019-02-25T04:47:03.455Z,3.97
2019-02-25T04:49:14.259Z,7.43
2019-02-25T04:51:25.049Z,9.60
2019-02-25T04:53:35.864Z,4.37
2019-02-25T04:55:46.793Z,5.50
2019-02-25T04:57:57.601Z,4.57
2019-02-25T05:00:28.355Z,3.77
2019-02-25T05:02:39.150Z,6.67
2019-02-25T05:04:49.967Z,5.07
2019-02-25T05:07:00.789Z,5.60
2019-02-25T05:09:11.669Z,5.07
2019-02-25T05:13:41.429Z,4.50
2019-02-25T05:15:52.242Z,5.50
2019-02-25T05:18:03.167Z,3.33
2019-02-25T05:20:13.999Z,5.07
2019-02-25T05:22:24.784Z,4.97
2019-02-25T05:27:14.492Z,4.47
2019-02-25T05:29:25.302Z,6.87
2019-02-25T05:31:36.114Z,4.33
2019-02-25T05:33:46.930Z,4.47
2019-02-25T05:35:57.741Z,5.03
2019-02-25T05:38:08.537Z,7.17
2019-02-25T05:40:41.112Z,5.37
2019-02-25T05:42:51.922Z,5.33
2019-02-25T05:45:44.370Z,3.90
2019-02-25T05:47:55.156Z,2.87
2019-02-25T05:50:49.584Z,4.73
2019-02-25T05:53:00.378Z,6.00
2019-02-25T05:55:52.818Z,4.80
2019-02-25T05:58:03.633Z,4.07
2019-02-25T06:00:56.082Z,6.80
2019-02-25T06:03:06.903Z,5.27
2019-02-25T06:05:17.718Z,6.40
2019-02-25T06:07:28.531Z,4.23
2019-02-25T06:09:39.328Z,5.83
2019-02-25T06:11:50.136Z,4.73
2019-02-25T06:14:42.617Z,4.10
2019-02-25T06:16:53.452Z,3.83
2019-02-25T06:19:04.263Z,3.47
2019-02-25T06:21:15.073Z,5.17
2019-02-25T06:23:25.880Z,3.27
2019-02-25T06:25:36.705Z,4.40
2019-02-25T06:27:47.537Z,4.57
2019-02-25T06:29:58.349Z,3.70
2019-02-25T06:32:09.154Z,4.80
2019-02-25T06:34:19.975Z,3.93
2019-02-25T06:36:30.764Z,11.50
2019-02-25T06:38:41.581Z,9.20
2019-02-25T06:40:52.383Z,7.00
2019-02-25T06:43:03.189Z,6.47
2019-02-25T06:45:55.662Z,5.03
2019-02-25T06:48:06.468Z,3.33
2019-02-25T06:50:17.283Z,4.33
2019-02-25T06:52:28.074Z,4.77
2019-02-25T06:54:38.876Z,4.53
2019-02-25T06:56:49.704Z,3.03
2019-02-25T06:59:00.516Z,4.90
2019-02-25T07:01:11.301Z,5.43
2019-02-25T07:03:22.123Z,2.80
2019-02-25T07:05:52.825Z,4.07
2019-02-25T07:10:41.946Z,3.57
2019-02-25T07:13:12.619Z,5.10
2019-02-25T07:18:01.758Z,3.70
2019-02-25T07:20:32.442Z,3.53
2019-02-25T07:23:03.514Z,4.53
2019-02-25T07:25:34.371Z,4.83
2019-02-25T07:30:37.545Z,3.57
2019-02-25T07:33:08.207Z,3.40
2019-02-25T07:35:38.913Z,7.33
2019-02-25T07:40:41.946Z,4.90
2019-02-25T07:43:12.654Z,4.13
2019-02-25T07:45:43.358Z,4.83
2019-02-25T07:48:14.067Z,5.57
2019-02-25T07:50:47.177Z,4.90
2019-02-25T07:53:17.341Z,5.27
2019-02-25T08:00:47.465Z,6.03
2019-02-25T08:03:18.156Z,7.10
2019-02-25T08:05:48.826Z,9.03
2019-02-25T08:08:19.543Z,10.17
2019-02-25T08:18:03.715Z,7.73
2019-02-25T08:20:34.390Z,12.63
2019-02-25T08:23:05.082Z,7.13
2019-02-25T08:25:35.772Z,7.87
2019-02-25T08:28:06.491Z,8.93
2019-02-25T08:30:37.158Z,8.00
2019-02-25T08:35:48.344Z,5.70
2019-02-25T08:38:19.022Z,6.77
2019-02-25T08:41:11.484Z,6.83
2019-02-25T08:46:01.263Z,8.73
2019-02-25T08:48:31.935Z,8.10
2019-02-25T08:50:42.766Z,6.37
2019-02-25T08:52:53.595Z,5.30
2019-02-25T08:55:46.073Z,6.47
2019-02-25T08:57:56.861Z,6.87
2019-02-25T09:00:49.339Z,6.87
2019-02-25T09:03:00.138Z,6.30
2019-02-25T09:05:52.600Z,9.63
2019-02-25T09:08:03.390Z,7.70
2019-02-25T09:10:14.213Z,6.87
2019-02-25T09:12:25.030Z,6.13
2019-02-25T09:14:55.717Z,11.17
2019-02-25T09:17:06.633Z,6.23
2019-02-25T09:19:17.473Z,6.70
2019-02-25T09:21:31.774Z,6.27
2019-02-25T09:23:41.000Z,5.30
2019-02-25T09:25:51.831Z,5.27
2019-02-25T09:28:02.631Z,8.47
2019-02-25T09:30:55.126Z,7.13
2019-02-25T09:33:05.917Z,7.97
2019-02-25T09:35:16.738Z,3.37
2019-02-25T09:37:27.547Z,2.10
2019-02-25T09:39:38.324Z,3.57
2019-02-25T09:41:49.150Z,5.13
2019-02-25T09:44:00.003Z,5.00
2019-02-25T09:46:10.823Z,5.33
2019-02-25T09:48:21.624Z,4.60
2019-02-25T09:50:32.444Z,6.70
2019-02-25T09:52:43.266Z,6.20
2019-02-25T09:54:54.099Z,4.20
2019-02-25T09:57:04.935Z,5.57
2019-02-25T09:59:15.730Z,5.53
2019-02-25T10:01:26.543Z,4.30
2019-02-25T10:03:37.360Z,4.33
2019-02-25T10:05:48.174Z,3.77
2019-02-25T10:07:59.006Z,4.57
2019-02-25T10:10:51.449Z,4.10
2019-02-25T10:13:02.259Z,4.53
2019-02-25T10:15:32.919Z,4.53
2019-02-25T10:17:43.853Z,4.00
2019-02-25T10:19:54.672Z,4.57
2019-02-25T10:22:05.449Z,4.10
2019-02-25T10:24:16.262Z,4.97
2019-02-25T10:26:27.088Z,4.40
2019-02-25T10:28:37.918Z,3.80
2019-02-25T10:30:52.805Z,11.17
2019-02-25T10:33:01.579Z,5.93
2019-02-25T10:35:54.034Z,3.83
2019-02-25T10:38:04.837Z,7.30
2019-02-25T10:40:17.836Z,3.80
2019-02-25T10:42:29.509Z,4.73
2019-02-25T10:44:41.215Z,4.33
2019-02-25T10:46:52.010Z,4.13
2019-02-25T10:49:11.095Z,3.10
2019-02-25T10:51:15.756Z,4.57
2019-02-25T10:53:26.571Z,7.93
2019-02-25T10:56:20.082Z,3.57
2019-02-25T10:58:33.527Z,3.83
2019-02-25T11:00:46.068Z,5.87
2019-02-25T11:02:58.195Z,3.93
2019-02-25T11:05:21.202Z,5.07
2019-02-25T11:07:33.155Z,6.47
2019-02-25T11:10:05.309Z,4.57
2019-02-25T11:12:16.234Z,6.70
2019-02-25T11:14:27.174Z,6.10
2019-02-25T11:16:38.063Z,5.07
2019-02-25T11:18:50.626Z,7.00
2019-02-25T11:21:03.685Z,3.50
2019-02-25T11:23:15.378Z,7.03
2019-02-25T11:25:28.466Z,3.60
2019-02-25T11:27:40.096Z,5.33
2019-02-25T11:29:52.593Z,3.27
2019-02-25T11:32:45.026Z,4.43
2019-02-25T11:34:55.841Z,5.27
2019-02-25T11:37:06.772Z,5.73
2019-02-25T11:41:50.052Z,6.57
2019-02-25T11:44:00.964Z,5.13
2019-02-25T11:46:12.008Z,4.47
2019-02-25T11:48:22.825Z,5.37
2019-02-25T11:50:33.648Z,5.10
2019-02-25T11:52:44.543Z,4.57
2019-02-25T11:54:55.337Z,5.30
2019-02-25T11:59:44.618Z,6.00
2019-02-25T12:01:55.462Z,6.20
2019-02-25T12:04:06.263Z,7.27
2019-02-25T12:06:17.217Z,6.90
2019-02-25T12:08:28.006Z,7.33
2019-02-25T12:10:38.849Z,6.23
2019-02-25T12:12:49.663Z,7.20
2019-02-25T12:15:00.477Z,3.63
2019-02-25T12:17:11.302Z,3.50
2019-02-25T12:19:22.107Z,2.27
2019-02-25T12:21:32.940Z,4.13
2019-02-25T12:23:43.797Z,1.40
2019-02-25T12:25:54.604Z,2.50
2019-02-25T12:28:05.426Z,2.03
2019-02-25T12:30:57.918Z,3.17
2019-02-25T12:33:08.709Z,2.30
2019-02-25T12:35:19.507Z,2.47
2019-02-25T12:37:30.337Z,3.47
2019-02-25T12:39:41.146Z,1.33
2019-02-25T12:41:51.946Z,2.10
2019-02-25T12:44:02.883Z,2.50
2019-02-25T12:46:13.705Z,0.97
2019-02-25T12:48:24.587Z,1.80
2019-02-25T12:50:35.378Z,3.30
2019-02-25T12:52:46.306Z,1.90
2019-02-25T12:54:57.103Z,1.20
2019-02-25T12:57:07.889Z,1.43
2019-02-25T12:59:18.710Z,2.47
2019-02-25T13:01:29.517Z,1.00
2019-02-25T13:03:40.342Z,2.87
2019-02-25T13:05:51.142Z,0.90
2019-02-25T13:10:20.762Z,2.00
2019-02-25T13:12:31.549Z,4.33
2019-02-25T13:14:42.391Z,1.07
2019-02-25T13:16:53.197Z,3.23
2019-02-25T13:19:04.013Z,1.47
2019-02-25T13:21:14.810Z,1.20
2019-02-25T13:23:25.627Z,1.80
2019-02-25T13:25:36.458Z,3.47
2019-02-25T13:27:47.310Z,1.47
2019-02-25T13:29:58.143Z,1.80
2019-02-25T13:32:09.153Z,1.03
2019-02-25T13:34:19.972Z,1.97
2019-02-25T13:36:30.877Z,2.57
2019-02-25T13:38:41.671Z,3.00
2019-02-25T13:40:52.497Z,1.70
2019-02-25T13:43:03.402Z,2.27
2019-02-25T13:45:34.086Z,1.03
2019-02-25T13:47:44.885Z,2.40
2019-02-25T13:49:55.697Z,2.33
2019-02-25T13:52:06.519Z,1.07
2019-02-25T13:54:17.449Z,1.50
2019-02-25T13:56:28.355Z,1.27
2019-02-25T13:58:39.160Z,1.57
2019-02-25T14:00:50.099Z,1.07
2019-02-25T14:03:03.202Z,1.60
2019-02-25T14:05:13.721Z,2.30
2019-02-25T14:07:24.541Z,2.03
2019-02-25T14:09:35.380Z,3.73
2019-02-25T14:11:46.190Z,1.93
2019-02-25T14:13:57.201Z,2.30
2019-02-25T14:16:09.939Z,2.37
2019-02-25T14:18:20.856Z,5.27
2019-02-25T14:20:31.766Z,1.13
2019-02-25T14:22:42.597Z,1.07
2019-02-25T14:24:53.391Z,2.37
2019-02-25T14:27:04.341Z,3.60
2019-02-25T14:29:15.135Z,4.17
2019-02-25T14:31:27.284Z,2.03
2019-02-25T14:33:38.685Z,1.83
2019-02-25T14:35:50.244Z,2.03
2019-02-25T14:38:23.221Z,1.53
2019-02-25T14:40:39.441Z,5.93
2019-02-25T14:42:49.459Z,2.77
2019-02-25T14:45:01.288Z,5.43
2019-02-25T14:47:20.619Z,1.87
2019-02-25T14:49:25.825Z,3.57
2019-02-25T14:51:36.734Z,2.43
2019-02-25T14:53:49.392Z,2.90
2019-02-25T14:56:03.877Z,2.07
2019-02-25T14:58:14.904Z,3.07
2019-02-25T15:01:07.333Z,3.83
2019-02-25T15:03:20.096Z,1.97
2019-02-25T15:05:30.995Z,2.77
2019-02-25T15:07:44.987Z,3.77
2019-02-25T15:09:57.930Z,4.53
2019-02-25T15:12:11.674Z,3.60
2019-02-25T15:14:22.161Z,2.50
2019-02-25T15:16:33.087Z,2.53
2019-02-25T15:18:43.942Z,1.90
2019-02-25T15:20:56.458Z,3.00
2019-02-25T15:25:29.205Z,3.93
2019-02-25T15:27:39.415Z,2.57
2019-02-25T15:29:50.224Z,5.67
2019-02-25T15:32:01.945Z,3.87
2019-02-25T15:34:15.026Z,4.37
2019-02-25T15:36:26.986Z,3.83
2019-02-25T15:38:40.982Z,3.53
2019-02-25T15:40:51.950Z,4.63
2019-02-25T15:43:23.312Z,3.93
2019-02-25T15:46:19.025Z,4.13
2019-02-25T15:48:30.944Z,3.57
2019-02-25T15:50:46.134Z,1.87
2019-02-25T15:52:56.976Z,6.20
2019-02-25T15:55:49.853Z,2.70
2019-02-25T15:58:01.069Z,3.10
2019-02-25T16:00:53.539Z,2.23
2019-02-25T16:05:38.819Z,3.00
2019-02-25T16:07:51.495Z,3.50
2019-02-25T16:10:44.334Z,4.43
2019-02-25T16:12:56.204Z,3.27
2019-02-25T16:15:49.589Z,3.83
2019-02-25T16:18:02.370Z,5.00
2019-02-25T16:20:54.940Z,3.13
2019-02-25T16:23:09.559Z,5.67
2019-02-25T16:26:02.145Z,3.73
2019-02-25T16:28:14.873Z,2.97
2019-02-25T16:30:28.857Z,2.37
2019-02-25T16:32:40.117Z,2.83
2019-02-25T16:34:51.277Z,4.77
2019-02-25T16:37:03.014Z,3.90
2019-02-25T16:39:14.942Z,3.00
2019-02-25T16:41:29.905Z,7.60
2019-02-25T16:43:38.497Z,5.73
2019-02-25T16:45:49.382Z,4.93
2019-02-25T16:48:00.260Z,5.03
2019-02-25T16:50:52.801Z,4.53
2019-02-25T16:53:05.926Z,8.63
2019-02-25T16:55:36.259Z,14.13
2019-02-25T16:57:47.775Z,9.33
2019-02-25T17:00:02.228Z,7.53
2019-02-25T17:02:14.176Z,13.17
2019-02-25T17:04:27.184Z,6.50
2019-02-25T17:06:38.074Z,9.53
2019-02-25T17:08:49.727Z,6.47
2019-02-25T17:11:01.713Z,6.60
2019-02-25T17:13:14.825Z,11.90
2019-02-25T17:17:59.373Z,9.00
2019-02-25T17:20:52.053Z,6.50
2019-02-25T17:23:02.903Z,7.53
2019-02-25T17:25:55.374Z,5.77
2019-02-25T17:28:08.190Z,6.43
2019-02-25T17:31:00.539Z,7.50
2019-02-25T17:35:33.608Z,7.60
2019-02-25T17:37:44.547Z,5.13
2019-02-25T17:39:58.569Z,6.03
2019-02-25T17:44:40.630Z,5.23
2019-02-25T17:46:51.461Z,6.10
2019-02-25T17:49:02.496Z,5.77
2019-02-25T17:51:13.417Z,10.93
2019-02-25T17:53:25.821Z,5.97
2019-02-25T17:55:36.965Z,5.97
2019-02-25T17:57:49.783Z,5.17
2019-02-25T18:00:00.779Z,5.70
2019-02-25T18:02:12.714Z,5.63
2019-02-25T18:04:26.567Z,6.87
2019-02-25T18:06:38.940Z,6.90
2019-02-25T18:08:51.359Z,6.70
2019-02-25T18:11:45.459Z,6.33
2019-02-25T18:13:57.833Z,9.97
2019-02-25T18:16:12.052Z,13.17
2019-02-25T18:18:24.511Z,11.57
2019-02-25T18:20:36.648Z,7.53
2019-02-25T18:22:50.809Z,5.60
2019-02-25T18:25:04.461Z,8.17
2019-02-25T18:27:14.508Z,10.73
2019-02-25T18:29:25.343Z,6.83
2019-02-25T18:31:38.094Z,6.40
2019-02-25T18:33:52.790Z,8.00
2019-02-25T18:36:24.491Z,5.87
2019-02-25T18:38:36.313Z,5.13
2019-02-25T18:40:47.145Z,7.97
2019-02-25T18:43:00.424Z,5.63
2019-02-25T18:45:33.285Z,7.03
2019-02-25T18:48:27.442Z,6.10
2019-02-25T18:50:39.545Z,7.23
2019-02-25T18:52:52.869Z,5.67
2019-02-25T18:55:47.555Z,4.50
2019-02-25T18:57:58.645Z,6.30
2019-02-25T19:00:53.091Z,4.53
2019-02-25T19:03:45.604Z,5.20
2019-02-25T19:05:57.444Z,4.60
2019-02-25T19:08:51.616Z,5.83
2019-02-25T19:11:03.971Z,5.10
2019-02-25T19:13:15.917Z,5.17
2019-02-25T19:15:27.650Z,5.80
2019-02-25T19:17:38.553Z,7.87
2019-02-25T19:19:51.599Z,7.10
2019-02-25T19:22:02.378Z,7.33
2019-02-25T19:26:48.991Z,4.20
2019-02-25T19:29:00.631Z,6.00
2019-02-25T19:31:11.592Z,6.20
2019-02-25T19:33:22.438Z,7.53
2019-02-25T19:35:35.337Z,5.43
2019-02-25T19:37:46.802Z,4.53
2019-02-25T19:39:59.031Z,4.07
2019-02-25T19:42:10.005Z,4.47
2019-02-25T19:44:21.239Z,5.03
2019-02-25T19:46:33.730Z,7.77
2019-02-25T19:48:45.234Z,6.43
2019-02-25T19:50:59.008Z,6.73
2019-02-25T19:53:12.634Z,6.73
2019-02-25T19:55:23.531Z,5.80
2019-02-25T19:57:35.831Z,6.77
2019-02-25T19:59:50.243Z,6.57
2019-02-25T20:01:59.396Z,6.67
2019-02-25T20:04:12.176Z,7.10
2019-02-25T20:06:23.538Z,9.40
2019-02-25T20:08:35.734Z,5.87
2019-02-25T20:10:46.591Z,3.97
2019-02-25T20:16:07.340Z,4.47
2019-02-25T20:18:11.729Z,3.73
2019-02-25T20:22:57.355Z,3.90
2019-02-25T20:25:51.150Z,6.87
2019-02-25T20:28:04.342Z,4.40
2019-02-25T20:30:57.320Z,3.87
2019-02-25T20:33:08.707Z,5.70
2019-02-25T20:35:22.174Z,7.00
2019-02-25T20:37:33.893Z,6.83
2019-02-25T20:39:46.534Z,4.43
2019-02-25T20:41:58.758Z,4.90
2019-02-25T20:44:10.321Z,4.03
2019-02-25T20:46:23.911Z,4.53
2019-02-25T20:48:33.969Z,4.47
2019-02-25T20:50:44.913Z,4.57
2019-02-25T20:52:56.559Z,5.47
2019-02-25T20:55:10.772Z,5.67
2019-02-25T20:57:21.477Z,5.10
2019-02-25T20:59:33.134Z,5.13
2019-02-25T21:01:46.685Z,5.70
2019-02-25T21:03:57.852Z,5.70
2019-02-25T21:06:09.876Z,5.27
2019-02-25T21:08:23.529Z,5.87
2019-02-25T21:10:35.634Z,4.63
2019-02-25T21:12:46.889Z,5.00
2019-02-25T21:14:57.716Z,3.80
2019-02-25T21:17:08.547Z,6.37
2019-02-25T21:19:20.103Z,6.20
2019-02-25T21:21:32.534Z,6.30
2019-02-25T21:23:44.811Z,5.03
2019-02-25T21:25:57.692Z,6.73
2019-02-25T21:28:09.180Z,8.13
2019-02-25T21:30:21.120Z,9.40
2019-02-25T21:32:31.920Z,10.80
2019-02-25T21:34:46.205Z,8.60
2019-02-25T21:36:56.266Z,9.00
2019-02-25T21:41:41.783Z,10.37
2019-02-25T21:43:54.060Z,8.93
2019-02-25T21:46:06.340Z,9.83
2019-02-25T21:48:17.178Z,12.53
2019-02-25T21:50:30.645Z,10.17
2019-02-25T21:52:41.714Z,10.10
2019-02-25T21:54:53.648Z,9.97
2019-02-25T21:57:05.394Z,12.10
2019-02-25T21:59:17.618Z,9.70
2019-02-25T22:01:31.934Z,9.13
2019-02-25T22:03:45.943Z,10.63
2019-02-25T22:05:56.250Z,9.10
2019-02-25T22:08:08.073Z,8.53
2019-02-25T22:11:12.032Z,6.27
2019-02-25T22:13:14.320Z,7.27
2019-02-25T22:15:26.321Z,8.27
2019-02-25T22:17:37.965Z,7.67
2019-02-25T22:19:50.253Z,7.20
2019-02-25T22:22:04.406Z,7.73
2019-02-25T22:24:15.377Z,7.83
2019-02-25T22:26:29.046Z,8.83
2019-02-25T22:30:57.659Z,5.37
2019-02-25T22:33:22.543Z,6.13
2019-02-25T22:35:21.350Z,7.37
2019-02-25T22:37:32.193Z,5.03
2019-02-25T22:39:43.916Z,5.33
2019-02-25T22:41:55.753Z,7.57
2019-02-25T22:44:08.426Z,7.20
2019-02-25T22:46:19.294Z,6.43
2019-02-25T22:48:30.220Z,5.43
2019-02-25T22:50:41.017Z,6.47
2019-02-25T22:52:58.118Z,5.40
2019-02-25T22:55:47.855Z,5.57
2019-02-25T22:57:58.947Z,3.93
2019-02-25T23:00:51.389Z,5.23
2019-02-25T23:03:02.536Z,4.80
2019-02-25T23:05:15.220Z,5.37
2019-02-25T23:07:26.178Z,5.03
2019-02-25T23:09:39.117Z,6.40
2019-02-25T23:11:50.658Z,7.33
2019-02-25T23:14:44.073Z,6.63
2019-02-25T23:16:54.872Z,6.57
2019-02-25T23:19:05.720Z,6.27
2019-02-25T23:21:23.447Z,5.90
2019-02-25T23:23:30.636Z,5.27
2019-02-25T23:25:42.036Z,5.13
2019-02-25T23:27:53.486Z,6.40
2019-02-25T23:30:25.484Z,6.63
2019-02-25T23:32:38.798Z,5.10
2019-02-25T23:34:50.645Z,5.00
2019-02-25T23:37:01.705Z,5.23
2019-02-25T23:39:54.175Z,8.47
2019-02-25T23:42:06.855Z,6.50
2019-02-25T23:44:19.771Z,5.93
2019-02-25T23:46:32.163Z,6.33
2019-02-25T23:48:44.620Z,5.67
2019-02-25T23:50:57.765Z,6.73
2019-02-25T23:53:08.550Z,8.70
2019-02-25T23:55:21.764Z,6.93
2019-02-25T23:57:32.689Z,6.43
2019-02-25T23:59:46.521Z,7.07
